sensor_id;sensor_type;location;lat;lon;timestamp;pressure;altitude;pressure_sealevel;temperature
70831;BMP180;58451;51.550;7.208;2023-12-07T00:00:44;101140.00;;;1.50
70831;BMP180;58451;51.550;7.208;2023-12-07T00:02:16;101142.00;;;1.48
70831;BMP180;58451;51.550;7.208;2023-12-07T00:03:48;101141.20;;;1.42
70831;BMP180;58451;51.550;7.208;2023-12-07T00:05:20;101145.20;;;1.40
70831;BMP180;58451;51.550;7.208;2023-12-07T00:06:52;101140.40;;;1.40
70831;BMP180;58451;51.550;7.208;2023-12-07T00:08:24;101141.40;;;1.40
70831;BMP180;58451;51.550;7.208;2023-12-07T00:09:56;101147.00;;;1.40
70831;BMP180;58451;51.550;7.208;2023-12-07T00:11:28;101145.80;;;1.40
70831;BMP180;58451;51.550;7.208;2023-12-07T00:13:03;101144.60;;;1.40
70831;BMP180;58451;51.550;7.208;2023-12-07T00:14:35;101144.00;;;1.40
70831;BMP180;58451;51.550;7.208;2023-12-07T00:16:10;101146.80;;;1.38
70831;BMP180;58451;51.550;7.208;2023-12-07T00:17:42;101144.80;;;1.34
70831;BMP180;58451;51.550;7.208;2023-12-07T00:19:14;101147.60;;;1.32
70831;BMP180;58451;51.550;7.208;2023-12-07T00:20:47;101154.40;;;1.38
70831;BMP180;58451;51.550;7.208;2023-12-07T00:22:20;101159.80;;;1.40
70831;BMP180;58451;51.550;7.208;2023-12-07T00:23:53;101159.40;;;1.38
70831;BMP180;58451;51.550;7.208;2023-12-07T00:25:25;101157.40;;;1.30
70831;BMP180;58451;51.550;7.208;2023-12-07T00:26:57;101157.00;;;1.32
70831;BMP180;58451;51.550;7.208;2023-12-07T00:28:29;101156.80;;;1.30
70831;BMP180;58451;51.550;7.208;2023-12-07T00:30:02;101159.40;;;1.30
70831;BMP180;58451;51.550;7.208;2023-12-07T00:31:35;101161.80;;;1.30
70831;BMP180;58451;51.550;7.208;2023-12-07T00:33:10;101155.60;;;1.30
70831;BMP180;58451;51.550;7.208;2023-12-07T00:34:42;101160.60;;;1.34
70831;BMP180;58451;51.550;7.208;2023-12-07T00:36:14;101159.80;;;1.32
70831;BMP180;58451;51.550;7.208;2023-12-07T00:37:46;101156.20;;;1.36
70831;BMP180;58451;51.550;7.208;2023-12-07T00:39:18;101157.40;;;1.36
70831;BMP180;58451;51.550;7.208;2023-12-07T00:40:50;101161.60;;;1.38
70831;BMP180;58451;51.550;7.208;2023-12-07T00:42:21;101160.00;;;1.36
70831;BMP180;58451;51.550;7.208;2023-12-07T00:43:54;101160.80;;;1.32
70831;BMP180;58451;51.550;7.208;2023-12-07T00:45:26;101157.80;;;1.32
70831;BMP180;58451;51.550;7.208;2023-12-07T00:46:58;101165.60;;;1.40
70831;BMP180;58451;51.550;7.208;2023-12-07T00:48:30;101168.20;;;1.38
70831;BMP180;58451;51.550;7.208;2023-12-07T00:50:02;101162.40;;;1.40
70831;BMP180;58451;51.550;7.208;2023-12-07T00:51:34;101158.20;;;1.40
70831;BMP180;58451;51.550;7.208;2023-12-07T00:53:06;101161.20;;;1.40
70831;BMP180;58451;51.550;7.208;2023-12-07T00:54:38;101158.80;;;1.40
70831;BMP180;58451;51.550;7.208;2023-12-07T00:56:11;101155.80;;;1.40
70831;BMP180;58451;51.550;7.208;2023-12-07T00:57:43;101157.20;;;1.40
70831;BMP180;58451;51.550;7.208;2023-12-07T00:59:15;101159.20;;;1.40
70831;BMP180;58451;51.550;7.208;2023-12-07T01:00:47;101159.40;;;1.40
70831;BMP180;58451;51.550;7.208;2023-12-07T01:02:19;101160.00;;;1.40
70831;BMP180;58451;51.550;7.208;2023-12-07T01:03:52;101160.20;;;1.40
70831;BMP180;58451;51.550;7.208;2023-12-07T01:05:24;101162.80;;;1.46
70831;BMP180;58451;51.550;7.208;2023-12-07T01:06:57;101163.60;;;1.40
70831;BMP180;58451;51.550;7.208;2023-12-07T01:08:29;101160.60;;;1.40
70831;BMP180;58451;51.550;7.208;2023-12-07T01:10:01;101163.80;;;1.40
70831;BMP180;58451;51.550;7.208;2023-12-07T01:11:33;101162.00;;;1.40
70831;BMP180;58451;51.550;7.208;2023-12-07T01:13:05;101162.80;;;1.40
70831;BMP180;58451;51.550;7.208;2023-12-07T01:14:37;101162.60;;;1.40
70831;BMP180;58451;51.550;7.208;2023-12-07T01:16:09;101161.40;;;1.40
70831;BMP180;58451;51.550;7.208;2023-12-07T01:17:42;101162.80;;;1.40
70831;BMP180;58451;51.550;7.208;2023-12-07T01:19:14;101165.00;;;1.40
70831;BMP180;58451;51.550;7.208;2023-12-07T01:20:46;101165.80;;;1.44
70831;BMP180;58451;51.550;7.208;2023-12-07T01:22:20;101164.60;;;1.48
70831;BMP180;58451;51.550;7.208;2023-12-07T01:23:53;101168.40;;;1.50
70831;BMP180;58451;51.550;7.208;2023-12-07T01:25:40;101171.60;;;1.42
70831;BMP180;58451;51.550;7.208;2023-12-07T01:27:12;101170.80;;;1.40
70831;BMP180;58451;51.550;7.208;2023-12-07T01:28:44;101169.80;;;1.44
70831;BMP180;58451;51.550;7.208;2023-12-07T01:30:16;101173.40;;;1.44
70831;BMP180;58451;51.550;7.208;2023-12-07T01:31:49;101176.40;;;1.40
70831;BMP180;58451;51.550;7.208;2023-12-07T01:33:20;101174.20;;;1.40
70831;BMP180;58451;51.550;7.208;2023-12-07T01:34:53;101174.60;;;1.40
70831;BMP180;58451;51.550;7.208;2023-12-07T01:36:26;101176.20;;;1.46
70831;BMP180;58451;51.550;7.208;2023-12-07T01:37:58;101176.40;;;1.50
70831;BMP180;58451;51.550;7.208;2023-12-07T01:39:30;101175.00;;;1.50
70831;BMP180;58451;51.550;7.208;2023-12-07T01:41:01;101173.00;;;1.50
70831;BMP180;58451;51.550;7.208;2023-12-07T01:42:34;101178.60;;;1.50
70831;BMP180;58451;51.550;7.208;2023-12-07T01:44:05;101177.20;;;1.50
70831;BMP180;58451;51.550;7.208;2023-12-07T01:45:37;101180.20;;;1.50
70831;BMP180;58451;51.550;7.208;2023-12-07T01:47:09;101177.40;;;1.50
70831;BMP180;58451;51.550;7.208;2023-12-07T01:48:43;101176.60;;;1.52
70831;BMP180;58451;51.550;7.208;2023-12-07T01:50:16;101180.80;;;1.56
70831;BMP180;58451;51.550;7.208;2023-12-07T01:51:48;101184.60;;;1.50
70831;BMP180;58451;51.550;7.208;2023-12-07T01:53:26;101187.60;;;1.50
70831;BMP180;58451;51.550;7.208;2023-12-07T01:54:58;101185.60;;;1.50
70831;BMP180;58451;51.550;7.208;2023-12-07T01:56:31;101189.80;;;1.50
70831;BMP180;58451;51.550;7.208;2023-12-07T01:58:04;101183.20;;;1.50
70831;BMP180;58451;51.550;7.208;2023-12-07T01:59:36;101185.80;;;1.50
70831;BMP180;58451;51.550;7.208;2023-12-07T02:01:09;101185.80;;;1.60
70831;BMP180;58451;51.550;7.208;2023-12-07T02:02:44;101185.80;;;1.60
70831;BMP180;58451;51.550;7.208;2023-12-07T02:04:17;101190.80;;;1.58
70831;BMP180;58451;51.550;7.208;2023-12-07T02:05:51;101197.00;;;1.52
70831;BMP180;58451;51.550;7.208;2023-12-07T02:07:23;101188.40;;;1.52
70831;BMP180;58451;51.550;7.208;2023-12-07T02:08:55;101189.40;;;1.50
70831;BMP180;58451;51.550;7.208;2023-12-07T02:10:28;101187.60;;;1.50
70831;BMP180;58451;51.550;7.208;2023-12-07T02:12:00;101186.20;;;1.50
70831;BMP180;58451;51.550;7.208;2023-12-07T02:13:32;101187.20;;;1.50
70831;BMP180;58451;51.550;7.208;2023-12-07T02:15:06;101186.20;;;1.50
70831;BMP180;58451;51.550;7.208;2023-12-07T02:16:45;101186.20;;;1.50
70831;BMP180;58451;51.550;7.208;2023-12-07T02:18:48;101185.00;;;1.50
70831;BMP180;58451;51.550;7.208;2023-12-07T02:20:35;101186.80;;;1.50
70831;BMP180;58451;51.550;7.208;2023-12-07T02:22:35;101193.80;;;1.50
70831;BMP180;58451;51.550;7.208;2023-12-07T02:24:11;101196.80;;;1.50
70831;BMP180;58451;51.550;7.208;2023-12-07T02:25:53;101199.60;;;1.50
70831;BMP180;58451;51.550;7.208;2023-12-07T02:27:36;101192.40;;;1.50
70831;BMP180;58451;51.550;7.208;2023-12-07T02:29:08;101195.00;;;1.48
70831;BMP180;58451;51.550;7.208;2023-12-07T02:30:40;101194.80;;;1.44
70831;BMP180;58451;51.550;7.208;2023-12-07T02:32:12;101192.00;;;1.40
70831;BMP180;58451;51.550;7.208;2023-12-07T02:33:44;101194.80;;;1.40
70831;BMP180;58451;51.550;7.208;2023-12-07T02:35:16;101197.40;;;1.40
70831;BMP180;58451;51.550;7.208;2023-12-07T02:36:49;101193.60;;;1.40
70831;BMP180;58451;51.550;7.208;2023-12-07T02:38:26;101193.40;;;1.38
70831;BMP180;58451;51.550;7.208;2023-12-07T02:40:00;101198.20;;;1.40
70831;BMP180;58451;51.550;7.208;2023-12-07T02:41:35;101203.80;;;1.40
70831;BMP180;58451;51.550;7.208;2023-12-07T02:43:08;101206.60;;;1.40
70831;BMP180;58451;51.550;7.208;2023-12-07T02:44:40;101207.40;;;1.40
70831;BMP180;58451;51.550;7.208;2023-12-07T02:46:13;101210.60;;;1.40
70831;BMP180;58451;51.550;7.208;2023-12-07T02:47:46;101208.80;;;1.40
70831;BMP180;58451;51.550;7.208;2023-12-07T02:49:18;101205.80;;;1.40
70831;BMP180;58451;51.550;7.208;2023-12-07T02:50:50;101202.40;;;1.40
70831;BMP180;58451;51.550;7.208;2023-12-07T02:52:25;101207.60;;;1.40
70831;BMP180;58451;51.550;7.208;2023-12-07T02:53:58;101205.20;;;1.40
70831;BMP180;58451;51.550;7.208;2023-12-07T02:55:30;101207.40;;;1.42
70831;BMP180;58451;51.550;7.208;2023-12-07T02:57:02;101203.00;;;1.50
70831;BMP180;58451;51.550;7.208;2023-12-07T02:58:36;101204.00;;;1.48
70831;BMP180;58451;51.550;7.208;2023-12-07T03:00:08;101212.20;;;1.50
70831;BMP180;58451;51.550;7.208;2023-12-07T03:01:41;101216.40;;;1.50
70831;BMP180;58451;51.550;7.208;2023-12-07T03:03:13;101214.20;;;1.50
70831;BMP180;58451;51.550;7.208;2023-12-07T03:04:45;101205.60;;;1.50
70831;BMP180;58451;51.550;7.208;2023-12-07T03:06:17;101206.40;;;1.50
70831;BMP180;58451;51.550;7.208;2023-12-07T03:07:51;101203.80;;;1.50
70831;BMP180;58451;51.550;7.208;2023-12-07T03:09:23;101202.00;;;1.50
70831;BMP180;58451;51.550;7.208;2023-12-07T03:10:55;101205.40;;;1.50
70831;BMP180;58451;51.550;7.208;2023-12-07T03:12:27;101201.40;;;1.50
70831;BMP180;58451;51.550;7.208;2023-12-07T03:13:59;101200.00;;;1.50
70831;BMP180;58451;51.550;7.208;2023-12-07T03:15:31;101198.80;;;1.54
70831;BMP180;58451;51.550;7.208;2023-12-07T03:17:03;101189.60;;;1.52
70831;BMP180;58451;51.550;7.208;2023-12-07T03:18:37;101192.60;;;1.56
70831;BMP180;58451;51.550;7.208;2023-12-07T03:20:09;101189.20;;;1.60
70831;BMP180;58451;51.550;7.208;2023-12-07T03:21:42;101182.80;;;1.60
70831;BMP180;58451;51.550;7.208;2023-12-07T03:23:17;101179.60;;;1.60
70831;BMP180;58451;51.550;7.208;2023-12-07T03:24:52;101182.60;;;1.60
70831;BMP180;58451;51.550;7.208;2023-12-07T03:26:24;101183.80;;;1.54
70831;BMP180;58451;51.550;7.208;2023-12-07T03:27:56;101184.80;;;1.50
70831;BMP180;58451;51.550;7.208;2023-12-07T03:29:28;101184.40;;;1.50
70831;BMP180;58451;51.550;7.208;2023-12-07T03:31:00;101185.60;;;1.50
70831;BMP180;58451;51.550;7.208;2023-12-07T03:32:32;101187.40;;;1.50
70831;BMP180;58451;51.550;7.208;2023-12-07T03:34:07;101193.40;;;1.50
70831;BMP180;58451;51.550;7.208;2023-12-07T03:35:39;101192.80;;;1.50
70831;BMP180;58451;51.550;7.208;2023-12-07T03:37:11;101188.60;;;1.50
70831;BMP180;58451;51.550;7.208;2023-12-07T03:38:43;101189.40;;;1.50
70831;BMP180;58451;51.550;7.208;2023-12-07T03:40:16;101190.20;;;1.50
70831;BMP180;58451;51.550;7.208;2023-12-07T03:41:49;101191.40;;;1.50
70831;BMP180;58451;51.550;7.208;2023-12-07T03:43:21;101190.00;;;1.40
70831;BMP180;58451;51.550;7.208;2023-12-07T03:44:53;101189.20;;;1.40
70831;BMP180;58451;51.550;7.208;2023-12-07T03:46:24;101187.00;;;1.40
70831;BMP180;58451;51.550;7.208;2023-12-07T03:47:56;101183.60;;;1.40
70831;BMP180;58451;51.550;7.208;2023-12-07T03:49:28;101192.80;;;1.40
70831;BMP180;58451;51.550;7.208;2023-12-07T03:51:01;101186.00;;;1.40
70831;BMP180;58451;51.550;7.208;2023-12-07T03:52:33;101188.40;;;1.40
70831;BMP180;58451;51.550;7.208;2023-12-07T03:54:05;101194.00;;;1.40
70831;BMP180;58451;51.550;7.208;2023-12-07T03:55:38;101195.00;;;1.40
70831;BMP180;58451;51.550;7.208;2023-12-07T03:57:10;101194.00;;;1.40
70831;BMP180;58451;51.550;7.208;2023-12-07T03:58:42;101193.40;;;1.40
70831;BMP180;58451;51.550;7.208;2023-12-07T04:00:14;101194.00;;;1.40
70831;BMP180;58451;51.550;7.208;2023-12-07T04:01:46;101192.60;;;1.40
70831;BMP180;58451;51.550;7.208;2023-12-07T04:03:18;101194.20;;;1.40
70831;BMP180;58451;51.550;7.208;2023-12-07T04:04:50;101198.80;;;1.38
70831;BMP180;58451;51.550;7.208;2023-12-07T04:06:24;101200.00;;;1.40
70831;BMP180;58451;51.550;7.208;2023-12-07T04:07:56;101208.00;;;1.40
70831;BMP180;58451;51.550;7.208;2023-12-07T04:09:28;101206.40;;;1.30
70831;BMP180;58451;51.550;7.208;2023-12-07T04:11:00;101203.20;;;1.30
70831;BMP180;58451;51.550;7.208;2023-12-07T04:12:32;101206.40;;;1.30
70831;BMP180;58451;51.550;7.208;2023-12-07T04:14:04;101210.00;;;1.30
70831;BMP180;58451;51.550;7.208;2023-12-07T04:15:39;101211.00;;;1.30
70831;BMP180;58451;51.550;7.208;2023-12-07T04:17:11;101209.60;;;1.30
70831;BMP180;58451;51.550;7.208;2023-12-07T04:18:43;101211.60;;;1.20
70831;BMP180;58451;51.550;7.208;2023-12-07T04:20:15;101210.40;;;1.20
70831;BMP180;58451;51.550;7.208;2023-12-07T04:21:48;101213.40;;;1.20
70831;BMP180;58451;51.550;7.208;2023-12-07T04:23:20;101213.80;;;1.20
70831;BMP180;58451;51.550;7.208;2023-12-07T04:24:52;101210.20;;;1.24
70831;BMP180;58451;51.550;7.208;2023-12-07T04:26:24;101210.20;;;1.28
70831;BMP180;58451;51.550;7.208;2023-12-07T04:27:56;101212.40;;;1.30
70831;BMP180;58451;51.550;7.208;2023-12-07T04:29:28;101212.60;;;1.28
70831;BMP180;58451;51.550;7.208;2023-12-07T04:31:00;101218.20;;;1.30
70831;BMP180;58451;51.550;7.208;2023-12-07T04:32:32;101216.20;;;1.30
70831;BMP180;58451;51.550;7.208;2023-12-07T04:34:04;101219.80;;;1.30
70831;BMP180;58451;51.550;7.208;2023-12-07T04:35:36;101222.00;;;1.30
70831;BMP180;58451;51.550;7.208;2023-12-07T04:37:11;101225.20;;;1.30
70831;BMP180;58451;51.550;7.208;2023-12-07T04:38:43;101225.00;;;1.30
70831;BMP180;58451;51.550;7.208;2023-12-07T04:40:15;101220.80;;;1.30
70831;BMP180;58451;51.550;7.208;2023-12-07T04:41:47;101223.40;;;1.30
70831;BMP180;58451;51.550;7.208;2023-12-07T04:43:19;101223.20;;;1.32
70831;BMP180;58451;51.550;7.208;2023-12-07T04:44:52;101229.20;;;1.40
70831;BMP180;58451;51.550;7.208;2023-12-07T04:46:23;101231.60;;;1.40
70831;BMP180;58451;51.550;7.208;2023-12-07T04:47:55;101226.20;;;1.40
70831;BMP180;58451;51.550;7.208;2023-12-07T04:49:29;101233.20;;;1.40
70831;BMP180;58451;51.550;7.208;2023-12-07T04:51:01;101234.00;;;1.40
70831;BMP180;58451;51.550;7.208;2023-12-07T04:52:33;101231.60;;;1.40
70831;BMP180;58451;51.550;7.208;2023-12-07T04:54:07;101232.80;;;1.48
70831;BMP180;58451;51.550;7.208;2023-12-07T04:55:50;101231.00;;;1.50
70831;BMP180;58451;51.550;7.208;2023-12-07T04:57:22;101234.00;;;1.50
70831;BMP180;58451;51.550;7.208;2023-12-07T04:58:54;101237.40;;;1.50
70831;BMP180;58451;51.550;7.208;2023-12-07T05:00:25;101234.80;;;1.50
70831;BMP180;58451;51.550;7.208;2023-12-07T05:01:58;101236.40;;;1.50
70831;BMP180;58451;51.550;7.208;2023-12-07T05:03:31;101237.00;;;1.50
70831;BMP180;58451;51.550;7.208;2023-12-07T05:05:04;101235.60;;;1.50
70831;BMP180;58451;51.550;7.208;2023-12-07T05:06:37;101234.00;;;1.58
70831;BMP180;58451;51.550;7.208;2023-12-07T05:08:09;101233.60;;;1.60
70831;BMP180;58451;51.550;7.208;2023-12-07T05:09:41;101233.60;;;1.60
70831;BMP180;58451;51.550;7.208;2023-12-07T05:11:14;101239.80;;;1.60
70831;BMP180;58451;51.550;7.208;2023-12-07T05:12:46;101234.20;;;1.60
70831;BMP180;58451;51.550;7.208;2023-12-07T05:14:17;101235.80;;;1.60
70831;BMP180;58451;51.550;7.208;2023-12-07T05:15:49;101231.20;;;1.64
70831;BMP180;58451;51.550;7.208;2023-12-07T05:17:21;101228.40;;;1.70
70831;BMP180;58451;51.550;7.208;2023-12-07T05:18:53;101228.60;;;1.70
70831;BMP180;58451;51.550;7.208;2023-12-07T05:20:25;101232.20;;;1.70
70831;BMP180;58451;51.550;7.208;2023-12-07T05:21:59;101236.80;;;1.70
70831;BMP180;58451;51.550;7.208;2023-12-07T05:23:31;101233.60;;;1.70
70831;BMP180;58451;51.550;7.208;2023-12-07T05:25:06;101233.80;;;1.76
70831;BMP180;58451;51.550;7.208;2023-12-07T05:26:44;101229.00;;;1.80
70831;BMP180;58451;51.550;7.208;2023-12-07T05:28:19;101236.80;;;1.80
70831;BMP180;58451;51.550;7.208;2023-12-07T05:29:54;101236.20;;;1.80
70831;BMP180;58451;51.550;7.208;2023-12-07T05:31:26;101237.20;;;1.80
70831;BMP180;58451;51.550;7.208;2023-12-07T05:32:58;101240.40;;;1.80
70831;BMP180;58451;51.550;7.208;2023-12-07T05:34:30;101242.60;;;1.80
70831;BMP180;58451;51.550;7.208;2023-12-07T05:36:02;101242.20;;;1.90
70831;BMP180;58451;51.550;7.208;2023-12-07T05:37:35;101242.00;;;1.80
70831;BMP180;58451;51.550;7.208;2023-12-07T05:39:07;101244.60;;;1.82
70831;BMP180;58451;51.550;7.208;2023-12-07T05:40:39;101247.40;;;1.90
70831;BMP180;58451;51.550;7.208;2023-12-07T05:42:12;101245.80;;;1.90
70831;BMP180;58451;51.550;7.208;2023-12-07T05:43:44;101247.60;;;1.90
70831;BMP180;58451;51.550;7.208;2023-12-07T05:45:16;101246.80;;;1.90
70831;BMP180;58451;51.550;7.208;2023-12-07T05:46:49;101245.00;;;1.92
70831;BMP180;58451;51.550;7.208;2023-12-07T05:48:21;101248.00;;;2.00
70831;BMP180;58451;51.550;7.208;2023-12-07T05:49:53;101244.60;;;2.00
70831;BMP180;58451;51.550;7.208;2023-12-07T05:51:25;101242.20;;;2.00
70831;BMP180;58451;51.550;7.208;2023-12-07T05:52:57;101240.40;;;2.00
70831;BMP180;58451;51.550;7.208;2023-12-07T05:54:31;101243.00;;;2.06
70831;BMP180;58451;51.550;7.208;2023-12-07T05:56:05;101246.80;;;2.10
70831;BMP180;58451;51.550;7.208;2023-12-07T05:57:37;101245.60;;;2.10
70831;BMP180;58451;51.550;7.208;2023-12-07T05:59:09;101242.00;;;2.10
70831;BMP180;58451;51.550;7.208;2023-12-07T06:00:41;101242.60;;;2.10
70831;BMP180;58451;51.550;7.208;2023-12-07T06:02:13;101240.20;;;2.10
70831;BMP180;58451;51.550;7.208;2023-12-07T06:03:45;101230.60;;;2.10
70831;BMP180;58451;51.550;7.208;2023-12-07T06:05:17;101235.40;;;2.10
70831;BMP180;58451;51.550;7.208;2023-12-07T06:06:51;101228.60;;;2.10
70831;BMP180;58451;51.550;7.208;2023-12-07T06:08:23;101236.40;;;2.12
70831;BMP180;58451;51.550;7.208;2023-12-07T06:09:55;101232.60;;;2.20
70831;BMP180;58451;51.550;7.208;2023-12-07T06:11:27;101231.60;;;2.20
70831;BMP180;58451;51.550;7.208;2023-12-07T06:12:59;101227.60;;;2.20
70831;BMP180;58451;51.550;7.208;2023-12-07T06:14:32;101227.40;;;2.20
70831;BMP180;58451;51.550;7.208;2023-12-07T06:16:04;101225.60;;;2.20
70831;BMP180;58451;51.550;7.208;2023-12-07T06:17:37;101230.60;;;2.20
70831;BMP180;58451;51.550;7.208;2023-12-07T06:19:09;101228.80;;;2.28
70831;BMP180;58451;51.550;7.208;2023-12-07T06:20:42;101231.80;;;2.30
70831;BMP180;58451;51.550;7.208;2023-12-07T06:22:13;101230.20;;;2.30
70831;BMP180;58451;51.550;7.208;2023-12-07T06:23:45;101228.40;;;2.30
70831;BMP180;58451;51.550;7.208;2023-12-07T06:25:19;101225.00;;;2.30
70831;BMP180;58451;51.550;7.208;2023-12-07T06:26:51;101227.80;;;2.30
70831;BMP180;58451;51.550;7.208;2023-12-07T06:28:23;101226.40;;;2.30
70831;BMP180;58451;51.550;7.208;2023-12-07T06:29:56;101225.20;;;2.30
70831;BMP180;58451;51.550;7.208;2023-12-07T06:31:28;101224.80;;;2.30
70831;BMP180;58451;51.550;7.208;2023-12-07T06:33:02;101225.60;;;2.30
70831;BMP180;58451;51.550;7.208;2023-12-07T06:34:39;101224.60;;;2.30
70831;BMP180;58451;51.550;7.208;2023-12-07T06:36:22;101225.20;;;2.30
70831;BMP180;58451;51.550;7.208;2023-12-07T06:37:54;101228.60;;;2.30
70831;BMP180;58451;51.550;7.208;2023-12-07T06:39:26;101233.40;;;2.30
70831;BMP180;58451;51.550;7.208;2023-12-07T06:40:58;101231.40;;;2.30
70831;BMP180;58451;51.550;7.208;2023-12-07T06:42:30;101232.20;;;2.30
70831;BMP180;58451;51.550;7.208;2023-12-07T06:44:02;101227.60;;;2.30
70831;BMP180;58451;51.550;7.208;2023-12-07T06:45:34;101224.00;;;2.30
70831;BMP180;58451;51.550;7.208;2023-12-07T06:47:06;101217.20;;;2.30
70831;BMP180;58451;51.550;7.208;2023-12-07T06:48:39;101216.20;;;2.30
70831;BMP180;58451;51.550;7.208;2023-12-07T06:50:11;101218.40;;;2.30
70831;BMP180;58451;51.550;7.208;2023-12-07T06:51:43;101222.80;;;2.26
70831;BMP180;58451;51.550;7.208;2023-12-07T06:53:15;101214.80;;;2.20
70831;BMP180;58451;51.550;7.208;2023-12-07T06:54:48;101220.20;;;2.20
70831;BMP180;58451;51.550;7.208;2023-12-07T06:56:20;101221.20;;;2.20
70831;BMP180;58451;51.550;7.208;2023-12-07T06:57:52;101225.20;;;2.10
70831;BMP180;58451;51.550;7.208;2023-12-07T06:59:24;101221.80;;;2.10
70831;BMP180;58451;51.550;7.208;2023-12-07T07:00:55;101220.00;;;2.08
70831;BMP180;58451;51.550;7.208;2023-12-07T07:02:29;101219.00;;;2.00
70831;BMP180;58451;51.550;7.208;2023-12-07T07:04:01;101217.00;;;2.00
70831;BMP180;58451;51.550;7.208;2023-12-07T07:05:33;101220.00;;;1.90
70831;BMP180;58451;51.550;7.208;2023-12-07T07:07:05;101226.00;;;1.90
70831;BMP180;58451;51.550;7.208;2023-12-07T07:08:38;101229.60;;;1.84
70831;BMP180;58451;51.550;7.208;2023-12-07T07:10:10;101224.80;;;1.80
70831;BMP180;58451;51.550;7.208;2023-12-07T07:11:48;101218.20;;;1.72
70831;BMP180;58451;51.550;7.208;2023-12-07T07:13:20;101217.20;;;1.70
70831;BMP180;58451;51.550;7.208;2023-12-07T07:14:53;101212.00;;;1.60
70831;BMP180;58451;51.550;7.208;2023-12-07T07:16:26;101210.00;;;1.60
70831;BMP180;58451;51.550;7.208;2023-12-07T07:17:58;101212.60;;;1.50
70831;BMP180;58451;51.550;7.208;2023-12-07T07:19:30;101208.60;;;1.46
70831;BMP180;58451;51.550;7.208;2023-12-07T07:21:03;101214.40;;;1.40
70831;BMP180;58451;51.550;7.208;2023-12-07T07:22:36;101214.00;;;1.40
70831;BMP180;58451;51.550;7.208;2023-12-07T07:24:08;101213.60;;;1.38
70831;BMP180;58451;51.550;7.208;2023-12-07T07:25:40;101211.40;;;1.30
70831;BMP180;58451;51.550;7.208;2023-12-07T07:27:13;101211.60;;;1.30
70831;BMP180;58451;51.550;7.208;2023-12-07T07:28:45;101209.00;;;1.20
70831;BMP180;58451;51.550;7.208;2023-12-07T07:30:17;101207.20;;;1.20
70831;BMP180;58451;51.550;7.208;2023-12-07T07:31:50;101204.40;;;1.18
70831;BMP180;58451;51.550;7.208;2023-12-07T07:33:22;101205.40;;;1.10
70831;BMP180;58451;51.550;7.208;2023-12-07T07:34:55;101211.20;;;1.10
70831;BMP180;58451;51.550;7.208;2023-12-07T07:36:27;101212.00;;;1.00
70831;BMP180;58451;51.550;7.208;2023-12-07T07:37:59;101208.60;;;1.00
70831;BMP180;58451;51.550;7.208;2023-12-07T07:39:31;101208.80;;;1.00
70831;BMP180;58451;51.550;7.208;2023-12-07T07:41:05;101199.00;;;0.90
70831;BMP180;58451;51.550;7.208;2023-12-07T07:42:40;101203.20;;;0.90
70831;BMP180;58451;51.550;7.208;2023-12-07T07:44:12;101205.60;;;0.88
70831;BMP180;58451;51.550;7.208;2023-12-07T07:45:44;101201.40;;;0.86
70831;BMP180;58451;51.550;7.208;2023-12-07T07:47:18;101207.00;;;0.80
70831;BMP180;58451;51.550;7.208;2023-12-07T07:48:50;101207.20;;;0.80
70831;BMP180;58451;51.550;7.208;2023-12-07T07:50:23;101204.60;;;0.80
70831;BMP180;58451;51.550;7.208;2023-12-07T07:51:55;101203.80;;;0.80
70831;BMP180;58451;51.550;7.208;2023-12-07T07:53:28;101206.60;;;0.80
70831;BMP180;58451;51.550;7.208;2023-12-07T07:55:05;101204.40;;;0.78
70831;BMP180;58451;51.550;7.208;2023-12-07T07:56:37;101212.00;;;0.72
70831;BMP180;58451;51.550;7.208;2023-12-07T07:58:09;101213.40;;;0.72
70831;BMP180;58451;51.550;7.208;2023-12-07T07:59:41;101202.20;;;0.70
70831;BMP180;58451;51.550;7.208;2023-12-07T08:01:13;101201.00;;;0.70
70831;BMP180;58451;51.550;7.208;2023-12-07T08:02:47;101195.80;;;0.70
70831;BMP180;58451;51.550;7.208;2023-12-07T08:04:19;101205.40;;;0.70
70831;BMP180;58451;51.550;7.208;2023-12-07T08:05:51;101210.20;;;0.70
70831;BMP180;58451;51.550;7.208;2023-12-07T08:07:24;101204.40;;;0.70
70831;BMP180;58451;51.550;7.208;2023-12-07T08:08:56;101196.00;;;0.70
70831;BMP180;58451;51.550;7.208;2023-12-07T08:10:28;101198.40;;;0.70
70831;BMP180;58451;51.550;7.208;2023-12-07T08:12:00;101197.40;;;0.70
70831;BMP180;58451;51.550;7.208;2023-12-07T08:13:34;101195.40;;;0.70
70831;BMP180;58451;51.550;7.208;2023-12-07T08:15:06;101197.00;;;0.70
70831;BMP180;58451;51.550;7.208;2023-12-07T08:16:46;101197.40;;;0.70
70831;BMP180;58451;51.550;7.208;2023-12-07T08:18:18;101189.40;;;0.70
70831;BMP180;58451;51.550;7.208;2023-12-07T08:19:51;101190.40;;;0.80
70831;BMP180;58451;51.550;7.208;2023-12-07T08:21:24;101193.40;;;0.80
70831;BMP180;58451;51.550;7.208;2023-12-07T08:23:01;101196.00;;;0.80
70831;BMP180;58451;51.550;7.208;2023-12-07T08:24:34;101197.20;;;0.80
70831;BMP180;58451;51.550;7.208;2023-12-07T08:26:05;101199.00;;;0.80
70831;BMP180;58451;51.550;7.208;2023-12-07T08:27:38;101205.40;;;0.80
70831;BMP180;58451;51.550;7.208;2023-12-07T08:29:11;101205.60;;;0.90
70831;BMP180;58451;51.550;7.208;2023-12-07T08:30:43;101206.80;;;0.90
70831;BMP180;58451;51.550;7.208;2023-12-07T08:32:15;101201.20;;;0.90
70831;BMP180;58451;51.550;7.208;2023-12-07T08:33:51;101204.80;;;1.00
70831;BMP180;58451;51.550;7.208;2023-12-07T08:35:24;101208.00;;;1.00
70831;BMP180;58451;51.550;7.208;2023-12-07T08:36:56;101207.20;;;1.10
70831;BMP180;58451;51.550;7.208;2023-12-07T08:38:29;101211.00;;;1.10
70831;BMP180;58451;51.550;7.208;2023-12-07T08:40:01;101207.60;;;1.20
70831;BMP180;58451;51.550;7.208;2023-12-07T08:41:33;101208.80;;;1.30
70831;BMP180;58451;51.550;7.208;2023-12-07T08:43:05;101204.80;;;1.30
70831;BMP180;58451;51.550;7.208;2023-12-07T08:44:38;101205.00;;;1.40
70831;BMP180;58451;51.550;7.208;2023-12-07T08:46:11;101210.00;;;1.40
70831;BMP180;58451;51.550;7.208;2023-12-07T08:47:43;101209.20;;;1.40
70831;BMP180;58451;51.550;7.208;2023-12-07T08:49:15;101218.80;;;1.50
70831;BMP180;58451;51.550;7.208;2023-12-07T08:50:48;101220.80;;;1.50
70831;BMP180;58451;51.550;7.208;2023-12-07T08:52:20;101219.60;;;1.60
70831;BMP180;58451;51.550;7.208;2023-12-07T08:54:11;101218.00;;;1.60
70831;BMP180;58451;51.550;7.208;2023-12-07T08:55:43;101214.20;;;1.70